Time;durP1;ratioP1;P1;durP2;ratioP2;P2;SDS_P1;SDS_P2;PMS_P1;PMS_P2;Temp;Humidity;BMP_temperature;BMP_pressure;BME280_temperature;BME280_humidity;BME280_pressure;Samples;Min_cycle;Max_cycle;Signal;HPM_P1;HPM_P2
2021/04/05 00:00:15;;;;;;;5.87;4.43;;;5.90;71.90;;;;;;5066312;28;20177;-59
2021/04/05 00:02:42;;;;;;;5.70;4.13;;;5.90;72.40;;;;;;5053648;28;20163;-54
2021/04/05 00:05:13;;;;;;;6.87;4.10;;;5.70;72.80;;;;;;5060250;28;20185;-56
2021/04/05 00:07:41;;;;;;;5.70;4.43;;;5.70;73.20;;;;;;5073599;28;20175;-58
2021/04/05 00:10:17;;;;;;;7.23;5.47;;;5.60;73.70;;;;;;5066212;28;20179;-56
2021/04/05 00:12:42;;;;;;;4.90;4.07;;;5.60;74.20;;;;;;5052531;28;20203;-57
2021/04/05 00:15:10;;;;;;;6.97;5.00;;;5.50;74.30;;;;;;5059082;28;20175;-49
2021/04/05 00:17:37;;;;;;;7.33;5.67;;;5.50;74.60;;;;;;5072490;28;20194;-50
2021/04/05 00:20:08;;;;;;;16.30;9.17;;;5.50;74.70;;;;;;5068377;28;20214;-53
2021/04/05 00:22:35;;;;;;;15.00;7.97;;;5.50;74.90;;;;;;5053127;28;20178;-48
2021/04/05 00:25:01;;;;;;;26.20;13.67;;;5.50;75.20;;;;;;5053318;28;20202;-50
2021/04/05 00:27:28;;;;;;;34.53;18.57;;;5.40;75.40;;;;;;5053587;28;20570;-57
2021/04/05 00:29:53;;;;;;;8.30;6.00;;;5.30;75.90;;;;;;5055271;28;20176;-54
2021/04/05 00:32:19;;;;;;;6.37;4.90;;;5.20;76.00;;;;;;5072672;28;20289;-51
2021/04/05 00:34:44;;;;;;;5.10;4.30;;;5.20;76.30;;;;;;5072393;28;20170;-49
2021/04/05 00:37:10;;;;;;;5.87;4.70;;;5.30;76.70;;;;;;5072030;28;20214;-48
2021/04/05 00:39:35;;;;;;;4.93;4.17;;;5.30;76.30;;;;;;5073353;28;20259;-56
2021/04/05 00:42:01;;;;;;;4.93;4.00;;;5.40;76.10;;;;;;5054411;28;20225;-55
2021/04/05 00:44:27;;;;;;;6.53;3.80;;;5.40;76.20;;;;;;5057310;28;20263;-48
2021/04/05 00:46:52;;;;;;;5.70;4.30;;;5.40;76.20;;;;;;5072662;28;20557;-56
2021/04/05 00:49:18;;;;;;;6.57;4.97;;;5.40;76.00;;;;;;5076414;28;20173;-50
2021/04/05 00:51:44;;;;;;;5.27;4.30;;;5.40;75.90;;;;;;5061041;28;20203;-52
2021/04/05 00:54:10;;;;;;;4.97;4.13;;;5.40;75.90;;;;;;5055940;28;20512;-49
2021/04/05 00:56:36;;;;;;;6.10;4.87;;;5.50;76.00;;;;;;5057653;28;20663;-54
2021/04/05 00:59:02;;;;;;;6.87;5.03;;;5.60;76.10;;;;;;5056601;28;20221;-48
2021/04/05 01:01:28;;;;;;;8.13;4.97;;;5.60;75.90;;;;;;5055536;28;20175;-56
2021/04/05 01:03:54;;;;;;;6.97;4.97;;;5.50;75.60;;;;;;5056360;28;20186;-50
2021/04/05 01:06:25;;;;;;;6.33;4.50;;;5.30;75.80;;;;;;5068982;28;20214;-59
2021/04/05 01:08:51;;;;;;;6.33;4.50;;;5.20;77.00;;;;;;5077138;28;20162;-59
2021/04/05 01:11:18;;;;;;;6.60;5.23;;;5.10;76.40;;;;;;5074974;28;20225;-47
2021/04/05 01:13:45;;;;;;;6.87;4.83;;;5.10;76.70;;;;;;5076452;28;20170;-50
2021/04/05 01:16:11;;;;;;;6.37;4.97;;;5.10;76.50;;;;;;5075935;28;20198;-56
2021/04/05 01:18:38;;;;;;;7.77;5.13;;;5.20;77.00;;;;;;5075130;28;20185;-48
2021/04/05 01:21:03;;;;;;;6.47;4.90;;;5.20;76.80;;;;;;5068162;28;20187;-50
2021/04/05 01:23:29;;;;;;;6.90;5.10;;;5.20;76.60;;;;;;5060580;28;20182;-58
2021/04/05 01:25:55;;;;;;;7.90;5.67;;;5.20;76.40;;;;;;5074493;28;20203;-48
2021/04/05 01:28:21;;;;;;;7.40;4.80;;;5.10;76.40;;;;;;5076239;28;20257;-55
2021/04/05 01:30:49;;;;;;;6.03;4.70;;;5.10;76.80;;;;;;5065244;28;20179;-57
2021/04/05 01:33:21;;;;;;;6.63;5.03;;;5.10;76.50;;;;;;5055607;28;20620;-50
2021/04/05 01:35:51;;;;;;;7.50;4.93;;;5.10;76.40;;;;;;5064278;28;20199;-47
2021/04/05 01:38:19;;;;;;;6.67;4.70;;;5.10;76.50;;;;;;5072764;28;20569;-57
2021/04/05 01:40:48;;;;;;;7.60;5.23;;;5.00;76.70;;;;;;5074754;28;20174;-49
2021/04/05 01:43:14;;;;;;;6.57;5.03;;;5.00;77.00;;;;;;5070302;28;20586;-49
2021/04/05 01:45:41;;;;;;;5.27;4.60;;;4.90;77.00;;;;;;5053212;28;20690;-49
2021/04/05 01:48:07;;;;;;;7.90;5.83;;;5.00;77.10;;;;;;5059234;28;20178;-53
2021/04/05 01:50:33;;;;;;;7.67;5.63;;;5.00;77.30;;;;;;5075682;28;20178;-48
2021/04/05 01:53:04;;;;;;;6.90;5.30;;;5.00;77.40;;;;;;5071044;28;20221;-48
2021/04/05 01:55:31;;;;;;;6.00;5.27;;;5.00;77.80;;;;;;5055104;28;20241;-57
2021/04/05 01:57:57;;;;;;;7.57;5.40;;;5.00;77.80;;;;;;5055688;28;20180;-50
2021/04/05 02:00:26;;;;;;;9.43;6.37;;;4.90;77.80;;;;;;5075918;28;20174;-59
2021/04/05 02:02:55;;;;;;;8.33;5.67;;;4.80;77.40;;;;;;5073676;28;20167;-57
2021/04/05 02:05:22;;;;;;;7.07;5.90;;;4.10;77.40;;;;;;5055263;28;20195;-58
2021/04/05 02:07:49;;;;;;;8.23;5.57;;;4.40;78.10;;;;;;5054179;28;20171;-57
2021/04/05 02:10:21;;;;;;;6.87;5.30;;;4.40;78.60;;;;;;5075192;28;20611;-55
2021/04/05 02:12:47;;;;;;;6.63;5.50;;;4.30;78.90;;;;;;5073930;28;20254;-57
2021/04/05 02:15:14;;;;;;;7.93;5.83;;;4.30;79.70;;;;;;5056288;28;20213;-48
2021/04/05 02:17:40;;;;;;;7.57;5.67;;;4.30;79.80;;;;;;5055108;28;20182;-59
2021/04/05 02:20:11;;;;;;;7.30;5.90;;;4.30;79.70;;;;;;5071247;28;20182;-48
2021/04/05 02:22:42;;;;;;;7.10;5.60;;;4.30;79.30;;;;;;5074337;28;20253;-49
2021/04/05 02:25:12;;;;;;;6.13;5.03;;;4.30;79.30;;;;;;5055182;28;20199;-56
2021/04/05 02:27:38;;;;;;;7.30;5.30;;;4.30;79.60;;;;;;5055574;28;20175;-50
2021/04/05 02:30:05;;;;;;;7.47;5.30;;;4.30;79.80;;;;;;5071555;28;20235;-48
2021/04/05 02:32:31;;;;;;;6.67;5.40;;;4.20;79.80;;;;;;5073436;28;20228;-53
2021/04/05 02:34:57;;;;;;;5.67;4.80;;;4.20;79.70;;;;;;5059337;28;20176;-50
2021/04/05 02:37:22;;;;;;;6.13;5.20;;;4.20;79.70;;;;;;5053556;28;20731;-56
2021/04/05 02:39:48;;;;;;;5.43;4.87;;;4.30;80.00;;;;;;5067463;28;20220;-48
2021/04/05 02:42:16;;;;;;;8.77;5.30;;;4.30;79.90;;;;;;5073227;28;20635;-58
2021/04/05 02:44:43;;;;;;;6.67;4.93;;;4.30;79.60;;;;;;5062891;28;20209;-48
2021/04/05 02:47:09;;;;;;;6.73;5.27;;;4.30;79.80;;;;;;5053549;28;20203;-51
2021/04/05 02:49:34;;;;;;;5.53;5.03;;;4.30;80.30;;;;;;5065249;28;20514;-57
2021/04/05 02:52:00;;;;;;;6.37;5.17;;;4.20;80.00;;;;;;5074032;28;20285;-54
2021/04/05 02:54:26;;;;;;;6.47;5.10;;;4.30;80.10;;;;;;5063584;28;20198;-53
2021/04/05 02:56:53;;;;;;;6.43;4.70;;;4.30;80.50;;;;;;5054353;28;20726;-48
2021/04/05 02:59:21;;;;;;;6.07;5.20;;;4.30;80.40;;;;;;5055180;28;20677;-56
2021/04/05 03:01:47;;;;;;;6.20;4.93;;;4.30;80.60;;;;;;5053057;28;20631;-51
2021/04/05 03:04:14;;;;;;;6.67;4.90;;;4.30;80.40;;;;;;5060151;28;20215;-59
2021/04/05 03:06:39;;;;;;;6.27;4.50;;;4.30;80.40;;;;;;5074455;28;20277;-49
2021/04/05 03:09:06;;;;;;;6.03;4.80;;;5.10;81.40;;;;;;5069049;28;20270;-55
2021/04/05 03:11:34;;;;;;;6.23;5.10;;;4.20;80.90;;;;;;5053061;28;20740;-58
2021/04/05 03:14:03;;;;;;;7.40;5.07;;;4.00;80.70;;;;;;5057249;28;20884;-58
2021/04/05 03:16:30;;;;;;;6.03;4.77;;;3.90;81.10;;;;;;5073457;28;20182;-49
2021/04/05 03:19:00;;;;;;;6.67;4.70;;;3.90;81.70;;;;;;5066096;28;20205;-48
2021/04/05 03:21:26;;;;;;;7.90;5.13;;;4.00;81.70;;;;;;5054695;28;20174;-48
2021/04/05 03:23:52;;;;;;;8.73;5.07;;;3.90;81.10;;;;;;5059400;28;20206;-57
2021/04/05 03:26:18;;;;;;;6.90;4.90;;;4.00;81.30;;;;;;5073527;28;20620;-48
2021/04/05 03:28:44;;;;;;;6.80;4.90;;;4.00;82.00;;;;;;5065597;28;20647;-48
2021/04/05 03:31:17;;;;;;;9.27;4.83;;;3.90;82.00;;;;;;5052928;28;20205;-47
2021/04/05 03:33:55;;;;;;;6.23;5.30;;;3.80;82.50;;;;;;5060978;28;20265;-48
2021/04/05 03:36:31;;;;;;;7.77;5.10;;;3.80;82.90;;;;;;5073930;28;20221;-55
2021/04/05 03:38:58;;;;;;;6.43;5.27;;;3.70;82.70;;;;;;5064496;28;20759;-57
2021/04/05 03:41:33;;;;;;;6.00;5.10;;;3.70;82.30;;;;;;5052984;28;20658;-50
2021/04/05 03:44:03;;;;;;;6.43;5.23;;;3.70;82.90;;;;;;5061863;28;20916;-48
2021/04/05 03:46:38;;;;;;;7.20;4.90;;;3.70;82.80;;;;;;5072571;28;20968;-57
2021/04/05 03:49:20;;;;;;;5.23;4.73;;;3.70;83.10;;;;;;5069405;28;20920;-59
2021/04/05 03:52:21;;;;;;;7.80;5.30;;;3.70;82.60;;;;;;5072199;28;20950;-59
2021/04/05 03:54:54;;;;;;;6.40;5.23;;;3.70;82.30;;;;;;5049999;28;20511;-48
2021/04/05 03:57:24;;;;;;;7.30;5.17;;;3.60;82.40;;;;;;5064433;28;20426;-59
2021/04/05 03:59:53;;;;;;;7.47;5.73;;;3.60;82.70;;;;;;5066918;28;20452;-54
2021/04/05 04:02:30;;;;;;;6.50;5.40;;;3.60;82.80;;;;;;5061384;28;20490;-57
2021/04/05 04:07:49;;;;;;;8.07;5.67;;;3.60;83.20;;;;;;5058346;28;20432;-56
2021/04/05 04:10:17;;;;;;;6.10;5.23;;;3.50;83.30;;;;;;5073975;28;20397;-56
2021/04/05 04:12:47;;;;;;;7.53;5.70;;;3.40;83.40;;;;;;5066557;28;20502;-58
2021/04/05 04:15:13;;;;;;;6.93;5.73;;;3.40;83.90;;;;;;5053593;28;20405;-54
2021/04/05 04:17:39;;;;;;;7.00;5.90;;;3.30;84.00;;;;;;5056948;28;20236;-48
2021/04/05 04:20:08;;;;;;;7.37;6.23;;;3.20;84.30;;;;;;5056931;28;20409;-48
2021/04/05 04:22:35;;;;;;;8.53;5.87;;;3.20;84.70;;;;;;5060075;28;20187;-48
2021/04/05 04:25:01;;;;;;;7.63;5.87;;;3.20;84.70;;;;;;5057153;28;20508;-57
2021/04/05 04:27:27;;;;;;;7.50;5.73;;;3.20;84.90;;;;;;5058841;28;20464;-49
2021/04/05 04:29:54;;;;;;;7.40;5.70;;;3.10;85.20;;;;;;5077604;28;20175;-50
2021/04/05 04:32:21;;;;;;;6.67;5.90;;;3.20;85.50;;;;;;5068969;28;20311;-48
2021/04/05 04:34:47;;;;;;;7.30;6.00;;;3.20;85.50;;;;;;5076328;28;20900;-56
2021/04/05 04:37:13;;;;;;;6.53;5.70;;;3.20;85.60;;;;;;5073413;28;20498;-54
2021/04/05 04:39:39;;;;;;;6.67;5.73;;;3.20;85.90;;;;;;5076153;28;20270;-58
2021/04/05 04:42:05;;;;;;;7.17;6.23;;;3.30;85.90;;;;;;5075309;28;20191;-56
2021/04/05 04:44:32;;;;;;;8.00;6.03;;;3.30;85.90;;;;;;5077697;28;20343;-49
2021/04/05 04:46:57;;;;;;;7.90;5.60;;;3.30;86.00;;;;;;5075808;28;20506;-59
2021/04/05 04:49:23;;;;;;;6.67;5.43;;;3.40;85.70;;;;;;5077597;28;20206;-59
2021/04/05 04:51:48;;;;;;;6.30;5.40;;;3.40;85.70;;;;;;5080979;28;20209;-48
2021/04/05 04:54:14;;;;;;;6.73;5.37;;;3.30;85.80;;;;;;5088238;28;20206;-48
2021/04/05 04:56:40;;;;;;;9.60;5.60;;;3.30;86.00;;;;;;5076253;28;20198;-56
2021/04/05 04:59:08;;;;;;;7.80;5.57;;;3.20;86.50;;;;;;5078708;28;20176;-59
2021/04/05 05:01:36;;;;;;;6.53;5.47;;;3.20;87.30;;;;;;5087742;28;20625;-50
2021/04/05 05:04:32;;;;;;;7.73;5.53;;;3.10;88.10;;;;;;5078981;28;20774;-47
2021/04/05 05:07:00;;;;;;;9.80;6.07;;;5.30;90.50;;;;;;5020704;28;20454;-49
2021/04/05 05:09:27;;;;;;;7.37;5.30;;;3.00;89.70;;;;;;5021634;28;20423;-58
2021/04/05 05:11:54;;;;;;;8.37;5.93;;;2.90;90.00;;;;;;5013217;28;20796;-48
2021/04/05 05:14:20;;;;;;;6.80;5.73;;;3.00;90.10;;;;;;4996868;28;20523;-56
2021/04/05 05:16:46;;;;;;;6.60;5.47;;;3.10;90.30;;;;;;5009408;28;20542;-59
2021/04/05 05:19:13;;;;;;;6.80;5.37;;;3.20;90.40;;;;;;5012986;28;20518;-47
2021/04/05 05:21:49;;;;;;;8.13;5.70;;;3.40;90.20;;;;;;5013557;28;20264;-59
2021/04/05 05:24:19;;;;;;;10.77;8.50;;;3.60;89.80;;;;;;5013228;28;20534;-53
2021/04/05 05:26:47;;;;;;;11.37;7.53;;;3.60;90.00;;;;;;5011595;28;20562;-58
2021/04/05 05:29:13;;;;;;;11.00;8.70;;;3.60;90.10;;;;;;5013027;28;20450;-47
2021/04/05 05:31:41;;;;;;;7.33;6.33;;;3.50;90.30;;;;;;4999520;28;20468;-56
2021/04/05 05:34:15;;;;;;;8.50;6.00;;;3.40;90.60;;;;;;4994087;28;20764;-48
2021/04/05 05:36:42;;;;;;;6.87;5.80;;;3.50;90.80;;;;;;4993704;28;20519;-49
2021/04/05 05:39:08;;;;;;;8.03;5.63;;;3.60;90.80;;;;;;5005903;28;20185;-47
2021/04/05 05:41:40;;;;;;;7.03;5.80;;;3.60;90.80;;;;;;5012639;28;20184;-56
2021/04/05 05:44:12;;;;;;;12.30;10.10;;;3.80;90.70;;;;;;5047655;28;20527;-57
2021/04/05 05:46:44;;;;;;;9.00;6.63;;;4.00;90.50;;;;;;5055781;28;20221;-54
2021/04/05 05:49:28;;;;;;;6.93;5.43;;;4.10;90.10;;;;;;5055826;28;20182;-48
2021/04/05 05:52:02;;;;;;;6.90;5.33;;;4.30;89.70;;;;;;5063757;28;20194;-53
2021/04/05 05:55:06;;;;;;;7.07;5.30;;;4.40;89.30;;;;;;5075332;28;20167;-47
2021/04/05 05:57:53;;;;;;;6.30;5.10;;;4.50;89.40;;;;;;5074808;28;20288;-58
2021/04/05 06:00:28;;;;;;;6.47;5.40;;;4.50;89.30;;;;;;5074001;28;20171;-57
2021/04/05 06:03:35;;;;;;;6.30;5.37;;;4.60;89.20;;;;;;5069354;28;20487;-55
2021/04/05 06:06:10;;;;;;;7.00;5.47;;;4.70;89.20;;;;;;5013182;28;20672;-47
2021/04/05 06:08:49;;;;;;;6.33;5.30;;;4.80;89.20;;;;;;5013450;28;20262;-47
2021/04/05 06:11:48;;;;;;;9.73;5.40;;;4.90;89.80;;;;;;5012391;28;20639;-48
2021/04/05 06:14:31;;;;;;;7.87;5.73;;;5.00;89.50;;;;;;5013871;28;20676;-48
2021/04/05 06:17:29;;;;;;;7.33;5.50;;;5.20;88.50;;;;;;5008627;28;20316;-47
2021/04/05 06:20:02;;;;;;;7.37;5.10;;;5.20;88.60;;;;;;5012790;28;20723;-51
2021/04/05 06:23:07;;;;;;;6.30;5.40;;;5.40;89.30;;;;;;5012996;28;20255;-58
2021/04/05 06:25:47;;;;;;;5.30;4.77;;;5.50;88.80;;;;;;4964288;28;20205;-47
2021/04/05 06:28:25;;;;;;;5.50;4.87;;;5.80;88.40;;;;;;4993659;28;20191;-58
2021/04/05 06:31:04;;;;;;;6.33;5.07;;;6.00;87.00;;;;;;4993747;28;20169;-58
2021/04/05 06:33:37;;;;;;;6.50;5.07;;;6.10;87.30;;;;;;4993394;28;20209;-55
2021/04/05 06:36:15;;;;;;;5.47;4.83;;;6.20;86.60;;;;;;5000827;28;20730;-47
2021/04/05 06:38:45;;;;;;;7.47;5.30;;;6.40;86.20;;;;;;5013129;28;20172;-47
2021/04/05 06:41:36;;;;;;;6.80;4.57;;;6.50;86.10;;;;;;5053825;28;20193;-46
2021/04/05 06:44:34;;;;;;;7.70;5.27;;;6.70;85.80;;;;;;5064687;28;20176;-49
2021/04/05 06:47:24;;;;;;;6.17;4.70;;;6.80;85.30;;;;;;5054191;28;20547;-49
2021/04/05 06:50:09;;;;;;;7.13;5.20;;;6.90;85.30;;;;;;5054125;28;20198;-54
2021/04/05 06:53:11;;;;;;;5.57;4.83;;;7.00;84.90;;;;;;5053876;28;20211;-55
2021/04/05 06:55:52;;;;;;;6.00;4.80;;;7.20;84.80;;;;;;5057323;28;20240;-47
2021/04/05 06:58:18;;;;;;;6.73;4.73;;;7.30;84.40;;;;;;5069820;28;20182;-57
2021/04/05 07:00:47;;;;;;;6.60;5.07;;;7.30;83.70;;;;;;5063361;28;20179;-50
2021/04/05 07:03:32;;;;;;;4.90;4.37;;;7.40;84.50;;;;;;5065656;28;20178;-46
2021/04/05 07:06:21;;;;;;;8.67;4.70;;;7.60;82.60;;;;;;5054694;28;20280;-46
2021/04/05 07:09:29;;;;;;;5.57;4.57;;;7.70;83.50;;;;;;5068799;28;20182;-46
2021/04/05 07:12:07;;;;;;;7.40;4.63;;;8.00;83.20;;;;;;5073975;28;20194;-51
2021/04/05 07:15:01;;;;;;;5.73;4.33;;;8.00;79.90;;;;;;5074411;28;20158;-47
2021/04/05 07:17:45;;;;;;;6.50;4.60;;;8.00;80.40;;;;;;5074548;28;20174;-46
2021/04/05 07:20:20;;;;;;;6.43;4.90;;;8.00;81.20;;;;;;5076122;28;20179;-52
2021/04/05 07:23:07;;;;;;;6.03;4.40;;;8.00;82.10;;;;;;5074590;28;20178;-54
2021/04/05 07:25:59;;;;;;;5.73;4.30;;;8.20;81.90;;;;;;5058385;28;20202;-47
2021/04/05 07:28:42;;;;;;;4.47;4.03;;;8.20;79.30;;;;;;5058873;28;20166;-57
2021/04/05 07:31:34;;;;;;;4.47;3.83;;;8.20;77.90;;;;;;5063460;28;20202;-56
2021/04/05 07:34:09;;;;;;;5.27;4.20;;;8.30;78.10;;;;;;5064062;28;20167;-54
2021/04/05 07:36:41;;;;;;;5.00;4.50;;;8.50;77.30;;;;;;5061304;28;20682;-58
2021/04/05 07:39:23;;;;;;;6.40;4.63;;;8.50;79.80;;;;;;5090349;28;20181;-47
2021/04/05 07:41:55;;;;;;;6.27;4.00;;;8.50;79.40;;;;;;5053798;28;20236;-55
2021/04/05 07:44:33;;;;;;;4.60;3.80;;;8.60;78.40;;;;;;5054065;28;20171;-58
2021/04/05 07:47:11;;;;;;;6.37;4.40;;;8.70;79.50;;;;;;5055925;28;20211;-49
2021/04/05 07:50:12;;;;;;;5.50;4.40;;;8.80;78.60;;;;;;5062580;28;20249;-48
2021/04/05 07:53:01;;;;;;;5.23;4.27;;;9.00;82.10;;;;;;5036840;28;20267;-49
2021/04/05 07:55:28;;;;;;;6.10;4.20;;;8.90;78.90;;;;;;5062578;28;20198;-56
2021/04/05 07:58:19;;;;;;;5.23;4.20;;;8.70;79.20;;;;;;5072128;28;20269;-55
2021/04/05 08:00:50;;;;;;;6.60;4.47;;;8.60;81.20;;;;;;5040385;28;20236;-55
2021/04/05 08:03:42;;;;;;;5.80;4.50;;;8.50;82.10;;;;;;5073661;28;20223;-55
2021/04/05 08:06:12;;;;;;;5.27;4.60;;;8.60;81.00;;;;;;5059027;28;20206;-57
2021/04/05 08:09:00;;;;;;;5.03;4.33;;;8.70;81.80;;;;;;5059097;28;20175;-50
2021/04/05 08:11:39;;;;;;;8.97;4.20;;;11.30;83.30;;;;;;5074119;28;20208;-50
2021/04/05 08:14:20;;;;;;;5.70;4.40;;;8.80;82.60;;;;;;5074212;28;20648;-57
2021/04/05 08:16:58;;;;;;;5.00;4.20;;;9.10;81.20;;;;;;5063125;28;20230;-46
2021/04/05 08:19:51;;;;;;;7.30;4.40;;;9.50;84.30;;;;;;5075049;28;20175;-57
2021/04/05 08:22:26;;;;;;;6.27;4.27;;;9.70;80.10;;;;;;5057050;28;20344;-46
2021/04/05 08:25:25;;;;;;;5.63;4.30;;;9.80;82.10;;;;;;5058070;28;20240;-47
2021/04/05 08:28:17;;;;;;;8.20;4.50;;;9.90;80.00;;;;;;5058648;28;20248;-49
2021/04/05 08:30:46;;;;;;;5.30;4.60;;;10.00;77.10;;;;;;5059551;28;20171;-54
2021/04/05 08:33:31;;;;;;;6.80;4.60;;;10.10;79.30;;;;;;5068165;28;20229;-53
2021/04/05 08:36:20;;;;;;;4.72;4.07;;;10.20;77.50;;;;;;5065669;28;20439;-47
2021/04/05 08:39:12;;;;;;;8.83;4.13;;;10.30;78.60;;;;;;5061817;28;20187;-48
2021/04/05 08:41:50;;;;;;;5.20;4.03;;;10.60;78.50;;;;;;5076002;28;20150;-58
2021/04/05 08:44:34;;;;;;;4.60;3.97;;;10.80;78.10;;;;;;5059377;28;20182;-49
2021/04/05 08:47:01;;;;;;;3.97;3.40;;;11.00;77.30;;;;;;5076406;28;20236;-49
2021/04/05 08:49:29;;;;;;;4.90;4.20;;;11.10;75.70;;;;;;5077596;28;20228;-57
2021/04/05 08:52:01;;;;;;;5.73;4.27;;;11.30;72.90;;;;;;5076172;28;20757;-52
2021/04/05 08:54:29;;;;;;;5.77;3.60;;;11.20;73.70;;;;;;5071231;28;20214;-46
2021/04/05 08:57:01;;;;;;;4.10;3.70;;;11.20;74.00;;;;;;5071392;28;20300;-47
2021/04/05 08:59:32;;;;;;;6.17;3.90;;;12.40;77.40;;;;;;5069548;28;20205;-58
2021/04/05 09:02:05;;;;;;;5.10;3.77;;;11.90;77.00;;;;;;5066994;28;20175;-54
2021/04/05 09:04:32;;;;;;;6.50;3.90;;;11.90;74.20;;;;;;5073766;28;20537;-56
2021/04/05 09:07:34;;;;;;;6.17;4.07;;;12.00;76.70;;;;;;5067899;28;20252;-55
2021/04/05 09:10:05;;;;;;;4.80;3.87;;;12.10;70.30;;;;;;5075060;28;20181;-48
2021/04/05 09:12:34;;;;;;;6.23;4.10;;;12.10;69.80;;;;;;5070054;28;20289;-58
2021/04/05 09:15:24;;;;;;;5.23;4.23;;;12.10;71.40;;;;;;5056024;28;20241;-53
2021/04/05 09:18:19;;;;;;;4.10;3.67;;;12.10;75.10;;;;;;5056165;28;20171;-58
2021/04/05 09:21:06;;;;;;;6.13;4.13;;;12.60;73.80;;;;;;5064477;28;20158;-54
2021/04/05 09:24:09;;;;;;;4.77;3.93;;;12.80;71.10;;;;;;5057864;28;20709;-46
2021/04/05 09:27:24;;;;;;;4.57;3.60;;;12.80;70.00;;;;;;5059861;28;20191;-47
2021/04/05 09:30:07;;;;;;;5.33;3.40;;;12.80;71.40;;;;;;5064747;28;20186;-48
2021/04/05 09:32:42;;;;;;;4.73;3.87;;;12.90;70.60;;;;;;5061682;28;20670;-55
2021/04/05 09:35:27;;;;;;;7.17;3.90;;;13.00;68.70;;;;;;5061646;28;20170;-54
2021/04/05 09:38:18;;;;;;;4.60;3.57;;;12.90;68.50;;;;;;5059375;28;20285;-54
2021/04/05 09:40:55;;;;;;;4.97;3.73;;;12.80;73.40;;;;;;5063239;28;20159;-55
2021/04/05 09:43:50;;;;;;;5.53;4.00;;;13.00;72.60;;;;;;5059146;28;20188;-48
2021/04/05 09:46:53;;;;;;;5.23;3.57;;;13.20;72.00;;;;;;5060456;28;20223;-47
2021/04/05 09:49:43;;;;;;;5.13;3.40;;;13.60;72.20;;;;;;5068159;28;20258;-49
2021/04/05 09:52:45;;;;;;;7.00;4.00;;;13.60;65.20;;;;;;5065921;28;20564;-50
2021/04/05 09:55:13;;;;;;;6.57;3.80;;;13.30;68.60;;;;;;5060077;28;20221;-47
2021/04/05 09:57:49;;;;;;;6.27;3.70;;;13.40;66.50;;;;;;5062322;28;20179;-55
2021/04/05 10:00:18;;;;;;;5.67;3.40;;;13.70;65.30;;;;;;5071364;28;20795;-57
2021/04/05 10:02:56;;;;;;;3.87;3.10;;;13.50;67.70;;;;;;5066738;28;20171;-50
2021/04/05 10:05:24;;;;;;;5.50;3.60;;;13.50;66.20;;;;;;5067236;28;20202;-57
2021/04/05 10:07:51;;;;;;;5.43;3.20;;;13.60;65.10;;;;;;5091049;28;20267;-49
2021/04/05 10:10:18;;;;;;;10.30;3.80;;;13.80;62.20;;;;;;5067523;28;20259;-59
2021/04/05 10:12:47;;;;;;;3.83;3.17;;;13.90;63.10;;;;;;5066932;28;20312;-57
2021/04/05 10:15:18;;;;;;;4.40;3.00;;;14.00;64.60;;;;;;5058721;28;20186;-51
2021/04/05 10:17:54;;;;;;;4.20;3.07;;;14.10;62.60;;;;;;5053943;28;20177;-56
2021/04/05 10:20:25;;;;;;;3.93;3.07;;;14.30;64.80;;;;;;5061383;28;20181;-59
2021/04/05 10:22:52;;;;;;;5.23;2.97;;;14.50;64.60;;;;;;5073612;28;20208;-54
2021/04/05 10:25:23;;;;;;;7.90;3.07;;;14.50;61.50;;;;;;5064897;28;20190;-60
2021/04/05 10:27:57;;;;;;;7.13;3.07;;;14.40;64.40;;;;;;5069080;28;20249;-52
2021/04/05 10:30:33;;;;;;;4.63;2.73;;;14.60;62.30;;;;;;5062547;28;20189;-54
2021/04/05 10:33:08;;;;;;;5.00;3.17;;;14.60;63.50;;;;;;5056232;28;20732;-47
2021/04/05 10:35:36;;;;;;;4.30;3.10;;;14.80;61.70;;;;;;5053634;28;20315;-50
2021/04/05 10:38:04;;;;;;;4.30;2.53;;;14.90;63.50;;;;;;5063147;28;20204;-57
2021/04/05 10:40:30;;;;;;;2.87;2.53;;;15.00;58.80;;;;;;5057251;28;20187;-57
2021/04/05 10:43:04;;;;;;;3.40;2.63;;;15.20;60.00;;;;;;5072515;28;20184;-59
2021/04/05 10:45:33;;;;;;;2.93;2.33;;;15.00;58.90;;;;;;5071924;28;20197;-53
2021/04/05 10:48:45;;;;;;;3.70;2.80;;;14.40;61.70;;;;;;5054049;28;20174;-52
2021/04/05 10:51:18;;;;;;;3.93;3.00;;;14.90;61.50;;;;;;5042908;28;20182;-59
2021/04/05 10:53:48;;;;;;;3.73;3.00;;;15.20;58.70;;;;;;5039818;28;20707;-57
2021/04/05 10:56:16;;;;;;;3.17;2.60;;;15.30;60.00;;;;;;5051639;28;20199;-56
2021/04/05 10:59:03;;;;;;;4.87;2.93;;;15.30;59.60;;;;;;5041219;28;20195;-50
2021/04/05 11:01:33;;;;;;;5.83;2.67;;;15.60;59.40;;;;;;5043681;28;20582;-59
2021/04/05 11:03:59;;;;;;;5.77;3.00;;;15.90;58.30;;;;;;5044834;28;20195;-55
2021/04/05 11:06:28;;;;;;;4.77;2.90;;;16.10;57.30;;;;;;5047781;28;20211;-54
2021/04/05 11:08:55;;;;;;;6.30;2.80;;;16.10;56.90;;;;;;5043932;28;20195;-57
2021/04/05 11:11:30;;;;;;;3.57;2.67;;;16.20;56.80;;;;;;5039991;28;20176;-51
2021/04/05 11:14:01;;;;;;;3.90;2.67;;;16.50;56.50;;;;;;5048710;28;20238;-49
2021/04/05 11:16:29;;;;;;;4.70;2.57;;;16.90;56.50;;;;;;5040314;28;20393;-47
2021/04/05 11:18:59;;;;;;;4.80;2.50;;;17.30;54.00;;;;;;5038815;28;20200;-59
2021/04/05 11:21:43;;;;;;;3.80;2.40;;;17.30;54.40;;;;;;5038649;28;20194;-48
2021/04/05 11:24:11;;;;;;;3.60;2.63;;;17.60;53.00;;;;;;5056287;28;20177;-57
2021/04/05 11:26:38;;;;;;;5.43;2.60;;;18.00;53.60;;;;;;5054539;28;20282;-60
2021/04/05 11:29:06;;;;;;;3.97;3.10;;;18.30;53.20;;;;;;5053711;28;20175;-57
2021/04/05 11:31:40;;;;;;;4.53;2.67;;;18.40;52.70;;;;;;5053243;28;20203;-58
2021/04/05 11:34:07;;;;;;;3.13;2.40;;;18.50;51.80;;;;;;5070034;28;20216;-57
2021/04/05 11:36:45;;;;;;;3.43;2.70;;;18.40;51.80;;;;;;5059700;28;20687;-55
2021/04/05 11:39:24;;;;;;;4.13;2.40;;;18.50;51.10;;;;;;5063211;28;20200;-47
2021/04/05 11:41:55;;;;;;;4.03;2.47;;;19.00;50.80;;;;;;5071828;28;20182;-52
2021/04/05 11:44:28;;;;;;;3.77;2.40;;;19.80;50.70;;;;;;5054897;28;20170;-60
2021/04/05 11:46:56;;;;;;;6.65;2.83;;;20.00;50.50;;;;;;5073741;28;20186;-54
2021/04/05 11:49:31;;;;;;;2.90;2.35;;;19.60;51.30;;;;;;5060744;28;20673;-56
2021/04/05 11:52:31;;;;;;;4.00;2.47;;;19.40;48.60;;;;;;5056611;28;20203;-51
2021/04/05 11:55:02;;;;;;;4.23;2.57;;;19.20;48.40;;;;;;5053958;28;20160;-58
2021/04/05 11:57:32;;;;;;;4.10;2.00;;;19.40;49.60;;;;;;5060803;28;20321;-47
2021/04/05 12:00:13;;;;;;;3.63;2.27;;;19.60;46.70;;;;;;5072643;28;20177;-58
2021/04/05 12:02:48;;;;;;;3.23;2.00;;;19.20;46.70;;;;;;5073643;28;20166;-47
2021/04/05 12:05:28;;;;;;;5.53;1.90;;;18.70;48.50;;;;;;5073349;28;20259;-46
2021/04/05 12:08:06;;;;;;;3.83;1.80;;;18.60;46.90;;;;;;5071231;28;20178;-48
2021/04/05 12:10:33;;;;;;;4.87;2.13;;;18.10;48.30;;;;;;5054685;28;20249;-52
2021/04/05 12:13:00;;;;;;;4.37;2.03;;;18.10;49.90;;;;;;5054194;28;20253;-52
2021/04/05 12:15:26;;;;;;;2.80;2.13;;;17.70;50.00;;;;;;5067029;28;20236;-59
2021/04/05 12:17:53;;;;;;;1.93;1.73;;;17.50;49.50;;;;;;5053576;28;20170;-51
2021/04/05 12:20:24;;;;;;;2.23;2.00;;;17.30;47.10;;;;;;5056031;28;20189;-49
2021/04/05 12:22:55;;;;;;;2.63;2.00;;;17.10;48.90;;;;;;5053557;28;20234;-50
2021/04/05 12:25:34;;;;;;;3.87;1.80;;;16.70;47.70;;;;;;5052060;28;20202;-57
2021/04/05 12:28:03;;;;;;;2.37;1.83;;;16.20;49.40;;;;;;5053363;28;20597;-48
2021/04/05 12:30:30;;;;;;;3.80;2.10;;;16.00;49.60;;;;;;5053365;28;20616;-49
2021/04/05 12:32:57;;;;;;;4.27;2.13;;;16.00;50.90;;;;;;5052932;28;20218;-59
2021/04/05 12:35:25;;;;;;;3.10;2.10;;;16.80;50.50;;;;;;5053253;28;20556;-60
2021/04/05 12:38:02;;;;;;;2.20;1.70;;;16.40;50.80;;;;;;5054533;28;20187;-47
2021/04/05 12:40:35;;;;;;;3.63;1.90;;;16.80;51.30;;;;;;5057830;28;20171;-47
2021/04/05 12:43:15;;;;;;;2.90;2.03;;;16.60;49.40;;;;;;5056716;28;20209;-47
2021/04/05 12:45:51;;;;;;;2.07;1.87;;;16.30;48.70;;;;;;5056911;28;20194;-49
2021/04/05 12:48:22;;;;;;;3.77;1.80;;;16.20;47.40;;;;;;5056511;28;20650;-57
2021/04/05 12:50:55;;;;;;;2.23;1.83;;;16.00;48.00;;;;;;5057970;28;20151;-47
2021/04/05 12:53:24;;;;;;;6.10;1.90;;;16.00;51.10;;;;;;5057131;28;20207;-47
2021/04/05 12:55:52;;;;;;;4.07;2.00;;;16.10;49.70;;;;;;5056427;28;20620;-47
2021/04/05 12:58:23;;;;;;;2.93;1.70;;;16.00;48.70;;;;;;5056954;28;20195;-47
2021/04/05 13:00:49;;;;;;;3.33;2.10;;;16.00;48.40;;;;;;5057100;28;20159;-56
2021/04/05 13:03:35;;;;;;;2.73;1.80;;;15.80;46.90;;;;;;5056624;28;20171;-58
2021/04/05 13:06:07;;;;;;;2.77;2.07;;;15.60;48.00;;;;;;5056700;28;20213;-47
2021/04/05 13:08:39;;;;;;;4.13;2.20;;;15.40;47.50;;;;;;5056055;28;20167;-48
2021/04/05 13:11:18;;;;;;;3.27;2.17;;;15.30;48.20;;;;;;5056074;28;20325;-59
2021/04/05 13:13:49;;;;;;;5.67;2.50;;;15.40;46.50;;;;;;5057108;28;20174;-48
2021/04/05 13:16:35;;;;;;;3.10;1.77;;;15.50;47.30;;;;;;5056604;28;20199;-48
2021/04/05 13:19:07;;;;;;;4.27;2.00;;;15.60;48.20;;;;;;5056066;28;20151;-59
2021/04/05 13:21:38;;;;;;;3.73;2.20;;;15.60;46.10;;;;;;5056252;28;20175;-47
2021/04/05 13:24:08;;;;;;;4.53;2.07;;;15.50;46.10;;;;;;5056088;28;20170;-47
2021/04/05 13:26:56;;;;;;;2.27;1.87;;;15.50;48.90;;;;;;5055767;28;20670;-47
2021/04/05 13:29:24;;;;;;;4.00;2.60;;;15.50;47.30;;;;;;5052566;28;20272;-57